sensor_id;sensor_type;location;lat;lon;timestamp;P1;durP1;ratioP1;P2;durP2;ratioP2
23384;SDS011;11865;45.394;10.978;2023-06-22T00:01:21;18.58;;;9.55;;
23384;SDS011;11865;45.394;10.978;2023-06-22T00:03:49;19.52;;;9.75;;
23384;SDS011;11865;45.394;10.978;2023-06-22T00:06:17;14.93;;;9.43;;
23384;SDS011;11865;45.394;10.978;2023-06-22T00:08:45;18.48;;;9.38;;
23384;SDS011;11865;45.394;10.978;2023-06-22T00:11:12;15.05;;;9.52;;
23384;SDS011;11865;45.394;10.978;2023-06-22T00:13:40;15.93;;;8.27;;
23384;SDS011;11865;45.394;10.978;2023-06-22T00:16:07;19.65;;;9.27;;
23384;SDS011;11865;45.394;10.978;2023-06-22T00:18:35;23.77;;;9.63;;
23384;SDS011;11865;45.394;10.978;2023-06-22T00:21:02;22.92;;;9.00;;
23384;SDS011;11865;45.394;10.978;2023-06-22T00:23:30;20.88;;;8.35;;
23384;SDS011;11865;45.394;10.978;2023-06-22T00:26:02;23.10;;;10.27;;
23384;SDS011;11865;45.394;10.978;2023-06-22T00:28:30;15.57;;;9.05;;
23384;SDS011;11865;45.394;10.978;2023-06-22T00:30:57;19.15;;;10.15;;
23384;SDS011;11865;45.394;10.978;2023-06-22T00:33:25;20.52;;;10.82;;
23384;SDS011;11865;45.394;10.978;2023-06-22T00:35:53;18.50;;;10.25;;
23384;SDS011;11865;45.394;10.978;2023-06-22T00:38:21;20.67;;;10.95;;
23384;SDS011;11865;45.394;10.978;2023-06-22T00:40:48;18.92;;;10.23;;
23384;SDS011;11865;45.394;10.978;2023-06-22T00:43:16;20.98;;;11.23;;
23384;SDS011;11865;45.394;10.978;2023-06-22T00:45:43;20.77;;;9.90;;
23384;SDS011;11865;45.394;10.978;2023-06-22T00:48:11;18.50;;;9.60;;
23384;SDS011;11865;45.394;10.978;2023-06-22T00:50:39;15.88;;;10.02;;
23384;SDS011;11865;45.394;10.978;2023-06-22T00:53:07;18.38;;;10.80;;
23384;SDS011;11865;45.394;10.978;2023-06-22T00:55:38;19.10;;;11.05;;
23384;SDS011;11865;45.394;10.978;2023-06-22T00:58:18;16.70;;;10.88;;
23384;SDS011;11865;45.394;10.978;2023-06-22T01:00:48;20.27;;;11.50;;
23384;SDS011;11865;45.394;10.978;2023-06-22T01:03:16;21.67;;;10.80;;
23384;SDS011;11865;45.394;10.978;2023-06-22T01:05:44;22.33;;;12.30;;
23384;SDS011;11865;45.394;10.978;2023-06-22T01:16:51;21.90;;;11.05;;
23384;SDS011;11865;45.394;10.978;2023-06-22T01:19:42;16.85;;;11.43;;
23384;SDS011;11865;45.394;10.978;2023-06-22T01:22:31;20.85;;;11.43;;
23384;SDS011;11865;45.394;10.978;2023-06-22T01:25:11;23.90;;;11.70;;
23384;SDS011;11865;45.394;10.978;2023-06-22T01:30:30;20.65;;;12.35;;
23384;SDS011;11865;45.394;10.978;2023-06-22T01:33:03;23.70;;;12.82;;
23384;SDS011;11865;45.394;10.978;2023-06-22T01:35:33;18.33;;;13.07;;
23384;SDS011;11865;45.394;10.978;2023-06-22T01:38:00;21.27;;;12.63;;
23384;SDS011;11865;45.394;10.978;2023-06-22T01:40:28;20.80;;;12.23;;
23384;SDS011;11865;45.394;10.978;2023-06-22T01:42:59;21.45;;;12.75;;
23384;SDS011;11865;45.394;10.978;2023-06-22T01:45:28;17.73;;;12.38;;
23384;SDS011;11865;45.394;10.978;2023-06-22T01:47:56;19.60;;;12.52;;
23384;SDS011;11865;45.394;10.978;2023-06-22T01:50:24;23.50;;;11.73;;
23384;SDS011;11865;45.394;10.978;2023-06-22T01:52:52;21.17;;;11.13;;
23384;SDS011;11865;45.394;10.978;2023-06-22T01:55:19;20.08;;;10.27;;
23384;SDS011;11865;45.394;10.978;2023-06-22T01:57:49;18.40;;;9.50;;
23384;SDS011;11865;45.394;10.978;2023-06-22T02:00:20;17.35;;;9.95;;
23384;SDS011;11865;45.394;10.978;2023-06-22T02:02:54;17.92;;;11.05;;
23384;SDS011;11865;45.394;10.978;2023-06-22T02:05:28;20.05;;;11.63;;
23384;SDS011;11865;45.394;10.978;2023-06-22T02:08:11;16.85;;;9.65;;
23384;SDS011;11865;45.394;10.978;2023-06-22T02:10:45;13.93;;;9.82;;
23384;SDS011;11865;45.394;10.978;2023-06-22T02:13:14;16.95;;;10.75;;
23384;SDS011;11865;45.394;10.978;2023-06-22T02:15:43;17.67;;;11.10;;
23384;SDS011;11865;45.394;10.978;2023-06-22T02:18:12;21.33;;;10.88;;
23384;SDS011;11865;45.394;10.978;2023-06-22T02:20:40;23.77;;;11.50;;
23384;SDS011;11865;45.394;10.978;2023-06-22T02:23:08;17.70;;;10.75;;
23384;SDS011;11865;45.394;10.978;2023-06-22T02:25:36;17.73;;;11.30;;
23384;SDS011;11865;45.394;10.978;2023-06-22T02:28:04;17.70;;;11.15;;
23384;SDS011;11865;45.394;10.978;2023-06-22T02:30:31;22.00;;;11.57;;
23384;SDS011;11865;45.394;10.978;2023-06-22T02:32:59;20.55;;;11.38;;
23384;SDS011;11865;45.394;10.978;2023-06-22T02:35:30;18.50;;;11.82;;
23384;SDS011;11865;45.394;10.978;2023-06-22T02:38:03;17.75;;;11.10;;
23384;SDS011;11865;45.394;10.978;2023-06-22T02:40:31;23.80;;;10.50;;
23384;SDS011;11865;45.394;10.978;2023-06-22T02:42:58;22.95;;;11.30;;
23384;SDS011;11865;45.394;10.978;2023-06-22T02:45:29;23.13;;;11.73;;
23384;SDS011;11865;45.394;10.978;2023-06-22T02:47:57;17.75;;;10.80;;
23384;SDS011;11865;45.394;10.978;2023-06-22T02:50:25;21.65;;;11.48;;
23384;SDS011;11865;45.394;10.978;2023-06-22T02:52:53;19.15;;;10.25;;
23384;SDS011;11865;45.394;10.978;2023-06-22T02:55:21;18.60;;;10.85;;
23384;SDS011;11865;45.394;10.978;2023-06-22T02:57:55;18.65;;;10.25;;
23384;SDS011;11865;45.394;10.978;2023-06-22T03:00:28;16.73;;;10.10;;
23384;SDS011;11865;45.394;10.978;2023-06-22T03:02:58;18.58;;;9.45;;
23384;SDS011;11865;45.394;10.978;2023-06-22T03:05:26;18.75;;;9.80;;
23384;SDS011;11865;45.394;10.978;2023-06-22T03:07:55;17.35;;;9.35;;
23384;SDS011;11865;45.394;10.978;2023-06-22T03:10:22;16.92;;;9.40;;
23384;SDS011;11865;45.394;10.978;2023-06-22T03:12:50;18.80;;;9.57;;
23384;SDS011;11865;45.394;10.978;2023-06-22T03:15:18;26.90;;;11.40;;
23384;SDS011;11865;45.394;10.978;2023-06-22T03:17:50;16.05;;;9.60;;
23384;SDS011;11865;45.394;10.978;2023-06-22T03:20:17;16.67;;;10.40;;
23384;SDS011;11865;45.394;10.978;2023-06-22T03:22:46;21.15;;;9.98;;
23384;SDS011;11865;45.394;10.978;2023-06-22T03:25:15;15.27;;;9.35;;
23384;SDS011;11865;45.394;10.978;2023-06-22T03:27:46;17.50;;;9.63;;
23384;SDS011;11865;45.394;10.978;2023-06-22T03:30:15;28.52;;;10.98;;
23384;SDS011;11865;45.394;10.978;2023-06-22T03:32:42;21.15;;;9.57;;
23384;SDS011;11865;45.394;10.978;2023-06-22T03:35:10;17.25;;;9.43;;
23384;SDS011;11865;45.394;10.978;2023-06-22T03:37:41;16.13;;;9.43;;
23384;SDS011;11865;45.394;10.978;2023-06-22T03:40:09;19.05;;;10.32;;
23384;SDS011;11865;45.394;10.978;2023-06-22T03:42:36;16.10;;;9.20;;
23384;SDS011;11865;45.394;10.978;2023-06-22T03:45:04;19.00;;;9.55;;
23384;SDS011;11865;45.394;10.978;2023-06-22T03:47:32;17.83;;;9.93;;
23384;SDS011;11865;45.394;10.978;2023-06-22T03:50:00;14.50;;;9.32;;
23384;SDS011;11865;45.394;10.978;2023-06-22T03:52:30;16.52;;;9.77;;
23384;SDS011;11865;45.394;10.978;2023-06-22T03:54:58;18.60;;;9.63;;
23384;SDS011;11865;45.394;10.978;2023-06-22T03:57:25;16.33;;;9.80;;
23384;SDS011;11865;45.394;10.978;2023-06-22T03:59:54;17.38;;;10.10;;
23384;SDS011;11865;45.394;10.978;2023-06-22T04:02:23;20.45;;;9.80;;
23384;SDS011;11865;45.394;10.978;2023-06-22T04:04:50;16.27;;;9.82;;
23384;SDS011;11865;45.394;10.978;2023-06-22T04:07:18;15.35;;;9.82;;
23384;SDS011;11865;45.394;10.978;2023-06-22T04:09:46;17.88;;;9.48;;
23384;SDS011;11865;45.394;10.978;2023-06-22T04:12:13;19.42;;;10.57;;
23384;SDS011;11865;45.394;10.978;2023-06-22T04:14:41;16.70;;;9.25;;
23384;SDS011;11865;45.394;10.978;2023-06-22T04:17:08;20.17;;;10.40;;
23384;SDS011;11865;45.394;10.978;2023-06-22T04:19:36;19.05;;;9.63;;
23384;SDS011;11865;45.394;10.978;2023-06-22T04:22:03;16.05;;;9.38;;
23384;SDS011;11865;45.394;10.978;2023-06-22T04:24:32;23.05;;;9.77;;
23384;SDS011;11865;45.394;10.978;2023-06-22T04:27:00;20.35;;;9.82;;
23384;SDS011;11865;45.394;10.978;2023-06-22T04:29:29;19.13;;;9.65;;
23384;SDS011;11865;45.394;10.978;2023-06-22T04:31:57;17.65;;;10.00;;
23384;SDS011;11865;45.394;10.978;2023-06-22T04:34:25;17.30;;;10.05;;
23384;SDS011;11865;45.394;10.978;2023-06-22T04:36:53;20.10;;;9.48;;
23384;SDS011;11865;45.394;10.978;2023-06-22T04:39:21;17.30;;;10.25;;
23384;SDS011;11865;45.394;10.978;2023-06-22T04:41:48;18.60;;;9.45;;
23384;SDS011;11865;45.394;10.978;2023-06-22T04:44:18;18.20;;;9.48;;
23384;SDS011;11865;45.394;10.978;2023-06-22T04:49:21;16.25;;;9.23;;
23384;SDS011;11865;45.394;10.978;2023-06-22T04:51:48;23.48;;;10.07;;
23384;SDS011;11865;45.394;10.978;2023-06-22T04:54:18;16.83;;;9.55;;
23384;SDS011;11865;45.394;10.978;2023-06-22T04:56:46;22.17;;;9.55;;
23384;SDS011;11865;45.394;10.978;2023-06-22T04:59:15;15.25;;;8.82;;
23384;SDS011;11865;45.394;10.978;2023-06-22T05:01:44;16.25;;;8.98;;
23384;SDS011;11865;45.394;10.978;2023-06-22T05:04:12;19.77;;;9.15;;
23384;SDS011;11865;45.394;10.978;2023-06-22T05:06:40;21.20;;;8.82;;
23384;SDS011;11865;45.394;10.978;2023-06-22T05:09:07;20.88;;;9.25;;
23384;SDS011;11865;45.394;10.978;2023-06-22T05:11:35;16.40;;;9.98;;
23384;SDS011;11865;45.394;10.978;2023-06-22T05:14:02;16.20;;;9.45;;
23384;SDS011;11865;45.394;10.978;2023-06-22T05:16:30;20.33;;;9.13;;
23384;SDS011;11865;45.394;10.978;2023-06-22T05:18:58;20.92;;;9.55;;
23384;SDS011;11865;45.394;10.978;2023-06-22T05:21:26;14.75;;;9.05;;
23384;SDS011;11865;45.394;10.978;2023-06-22T05:23:54;17.67;;;8.52;;
23384;SDS011;11865;45.394;10.978;2023-06-22T05:26:22;21.20;;;9.15;;
23384;SDS011;11865;45.394;10.978;2023-06-22T05:28:51;21.83;;;9.40;;
23384;SDS011;11865;45.394;10.978;2023-06-22T05:31:19;19.77;;;9.80;;
23384;SDS011;11865;45.394;10.978;2023-06-22T05:33:47;23.63;;;11.13;;
23384;SDS011;11865;45.394;10.978;2023-06-22T05:36:16;25.80;;;10.27;;
23384;SDS011;11865;45.394;10.978;2023-06-22T05:38:43;25.83;;;10.57;;
23384;SDS011;11865;45.394;10.978;2023-06-22T05:41:11;24.02;;;10.35;;
23384;SDS011;11865;45.394;10.978;2023-06-22T05:43:38;18.17;;;9.68;;
23384;SDS011;11865;45.394;10.978;2023-06-22T05:46:06;26.52;;;10.48;;
23384;SDS011;11865;45.394;10.978;2023-06-22T05:48:33;24.50;;;10.15;;
23384;SDS011;11865;45.394;10.978;2023-06-22T05:51:01;19.48;;;10.50;;
23384;SDS011;11865;45.394;10.978;2023-06-22T05:53:28;22.90;;;10.30;;
23384;SDS011;11865;45.394;10.978;2023-06-22T05:55:56;20.52;;;10.43;;
23384;SDS011;11865;45.394;10.978;2023-06-22T05:58:23;21.80;;;10.77;;
23384;SDS011;11865;45.394;10.978;2023-06-22T06:00:51;21.50;;;10.50;;
23384;SDS011;11865;45.394;10.978;2023-06-22T06:03:19;23.75;;;11.07;;
23384;SDS011;11865;45.394;10.978;2023-06-22T06:05:46;21.08;;;11.23;;
23384;SDS011;11865;45.394;10.978;2023-06-22T06:08:14;23.27;;;11.52;;
23384;SDS011;11865;45.394;10.978;2023-06-22T06:10:42;21.90;;;10.55;;
23384;SDS011;11865;45.394;10.978;2023-06-22T06:13:09;19.25;;;11.38;;
23384;SDS011;11865;45.394;10.978;2023-06-22T06:15:37;18.80;;;10.75;;
23384;SDS011;11865;45.394;10.978;2023-06-22T06:18:05;22.10;;;11.43;;
23384;SDS011;11865;45.394;10.978;2023-06-22T06:20:34;21.40;;;11.77;;
23384;SDS011;11865;45.394;10.978;2023-06-22T06:23:02;21.65;;;11.13;;
23384;SDS011;11865;45.394;10.978;2023-06-22T06:25:30;20.27;;;11.35;;
23384;SDS011;11865;45.394;10.978;2023-06-22T06:27:57;22.83;;;11.07;;
23384;SDS011;11865;45.394;10.978;2023-06-22T06:30:25;26.70;;;11.52;;
23384;SDS011;11865;45.394;10.978;2023-06-22T06:32:53;32.17;;;11.95;;
23384;SDS011;11865;45.394;10.978;2023-06-22T06:35:20;24.88;;;11.10;;
23384;SDS011;11865;45.394;10.978;2023-06-22T06:37:49;19.48;;;11.18;;
23384;SDS011;11865;45.394;10.978;2023-06-22T06:40:17;24.63;;;11.52;;
23384;SDS011;11865;45.394;10.978;2023-06-22T06:42:46;30.95;;;12.23;;
23384;SDS011;11865;45.394;10.978;2023-06-22T06:45:17;26.17;;;12.10;;
23384;SDS011;11865;45.394;10.978;2023-06-22T06:47:46;35.47;;;12.93;;
23384;SDS011;11865;45.394;10.978;2023-06-22T06:50:14;23.45;;;11.50;;
23384;SDS011;11865;45.394;10.978;2023-06-22T06:52:42;20.80;;;11.95;;
23384;SDS011;11865;45.394;10.978;2023-06-22T06:55:10;21.13;;;11.10;;
23384;SDS011;11865;45.394;10.978;2023-06-22T06:57:39;20.02;;;11.18;;
23384;SDS011;11865;45.394;10.978;2023-06-22T07:00:08;20.98;;;11.75;;
23384;SDS011;11865;45.394;10.978;2023-06-22T07:02:52;21.10;;;11.50;;
23384;SDS011;11865;45.394;10.978;2023-06-22T07:05:20;24.08;;;11.18;;
23384;SDS011;11865;45.394;10.978;2023-06-22T07:07:47;19.98;;;12.27;;
23384;SDS011;11865;45.394;10.978;2023-06-22T07:10:15;26.67;;;11.60;;
23384;SDS011;11865;45.394;10.978;2023-06-22T07:12:43;26.58;;;11.02;;
23384;SDS011;11865;45.394;10.978;2023-06-22T07:15:11;20.98;;;11.55;;
23384;SDS011;11865;45.394;10.978;2023-06-22T07:17:39;24.02;;;11.13;;
23384;SDS011;11865;45.394;10.978;2023-06-22T07:20:08;25.35;;;11.05;;
23384;SDS011;11865;45.394;10.978;2023-06-22T07:25:08;22.60;;;11.02;;
23384;SDS011;11865;45.394;10.978;2023-06-22T07:27:37;24.02;;;11.32;;
23384;SDS011;11865;45.394;10.978;2023-06-22T07:30:09;18.88;;;11.02;;
23384;SDS011;11865;45.394;10.978;2023-06-22T07:32:37;16.95;;;10.57;;
23384;SDS011;11865;45.394;10.978;2023-06-22T07:35:05;15.77;;;10.30;;
23384;SDS011;11865;45.394;10.978;2023-06-22T07:37:33;26.10;;;11.00;;
23384;SDS011;11865;45.394;10.978;2023-06-22T07:40:02;16.55;;;10.63;;
23384;SDS011;11865;45.394;10.978;2023-06-22T07:42:33;21.55;;;10.52;;
23384;SDS011;11865;45.394;10.978;2023-06-22T07:45:02;23.10;;;10.88;;
23384;SDS011;11865;45.394;10.978;2023-06-22T07:47:30;25.73;;;9.75;;
23384;SDS011;11865;45.394;10.978;2023-06-22T07:50:02;25.15;;;9.77;;
23384;SDS011;11865;45.394;10.978;2023-06-22T07:52:30;24.70;;;12.57;;
23384;SDS011;11865;45.394;10.978;2023-06-22T07:54:58;22.90;;;11.55;;
23384;SDS011;11865;45.394;10.978;2023-06-22T07:57:26;23.75;;;11.40;;
23384;SDS011;11865;45.394;10.978;2023-06-22T08:00:02;20.73;;;11.10;;
23384;SDS011;11865;45.394;10.978;2023-06-22T08:02:43;22.77;;;11.38;;
23384;SDS011;11865;45.394;10.978;2023-06-22T08:05:13;22.27;;;12.37;;
23384;SDS011;11865;45.394;10.978;2023-06-22T08:07:48;28.50;;;13.68;;
23384;SDS011;11865;45.394;10.978;2023-06-22T08:10:16;24.45;;;13.65;;
23384;SDS011;11865;45.394;10.978;2023-06-22T08:12:44;20.95;;;10.30;;
23384;SDS011;11865;45.394;10.978;2023-06-22T08:15:11;20.88;;;10.52;;
23384;SDS011;11865;45.394;10.978;2023-06-22T08:17:39;20.58;;;9.10;;
23384;SDS011;11865;45.394;10.978;2023-06-22T08:20:08;22.90;;;9.57;;
23384;SDS011;11865;45.394;10.978;2023-06-22T08:22:40;17.88;;;9.80;;
23384;SDS011;11865;45.394;10.978;2023-06-22T08:25:08;19.85;;;8.95;;
23384;SDS011;11865;45.394;10.978;2023-06-22T08:27:36;16.52;;;8.70;;
23384;SDS011;11865;45.394;10.978;2023-06-22T08:30:04;18.77;;;10.13;;
23384;SDS011;11865;45.394;10.978;2023-06-22T08:32:33;28.02;;;11.15;;
23384;SDS011;11865;45.394;10.978;2023-06-22T08:35:01;24.55;;;12.27;;
23384;SDS011;11865;45.394;10.978;2023-06-22T08:37:29;20.65;;;11.40;;
23384;SDS011;11865;45.394;10.978;2023-06-22T08:40:03;22.15;;;11.98;;
23384;SDS011;11865;45.394;10.978;2023-06-22T08:42:34;15.60;;;10.17;;
23384;SDS011;11865;45.394;10.978;2023-06-22T08:45:05;16.90;;;10.20;;
23384;SDS011;11865;45.394;10.978;2023-06-22T08:47:33;17.67;;;10.00;;
23384;SDS011;11865;45.394;10.978;2023-06-22T08:50:01;14.85;;;10.00;;
23384;SDS011;11865;45.394;10.978;2023-06-22T08:52:31;20.63;;;10.10;;
23384;SDS011;11865;45.394;10.978;2023-06-22T08:54:58;20.73;;;9.98;;
23384;SDS011;11865;45.394;10.978;2023-06-22T08:57:26;19.52;;;10.35;;
23384;SDS011;11865;45.394;10.978;2023-06-22T08:59:54;23.33;;;9.90;;
23384;SDS011;11865;45.394;10.978;2023-06-22T09:02:26;18.75;;;11.75;;
23384;SDS011;11865;45.394;10.978;2023-06-22T09:04:58;15.55;;;10.00;;
23384;SDS011;11865;45.394;10.978;2023-06-22T09:07:26;19.27;;;10.00;;
23384;SDS011;11865;45.394;10.978;2023-06-22T09:09:54;18.65;;;9.00;;
23384;SDS011;11865;45.394;10.978;2023-06-22T09:12:22;17.05;;;10.05;;
23384;SDS011;11865;45.394;10.978;2023-06-22T09:14:53;18.55;;;10.00;;
23384;SDS011;11865;45.394;10.978;2023-06-22T09:17:21;18.40;;;11.35;;
23384;SDS011;11865;45.394;10.978;2023-06-22T09:19:49;15.18;;;9.00;;
23384;SDS011;11865;45.394;10.978;2023-06-22T09:22:17;16.40;;;9.18;;
23384;SDS011;11865;45.394;10.978;2023-06-22T09:24:44;14.82;;;9.63;;
23384;SDS011;11865;45.394;10.978;2023-06-22T09:27:12;16.63;;;10.10;;
23384;SDS011;11865;45.394;10.978;2023-06-22T09:29:39;22.63;;;10.13;;
23384;SDS011;11865;45.394;10.978;2023-06-22T09:32:07;14.45;;;9.35;;
23384;SDS011;11865;45.394;10.978;2023-06-22T09:34:35;16.60;;;9.55;;
23384;SDS011;11865;45.394;10.978;2023-06-22T09:37:02;14.45;;;10.13;;
23384;SDS011;11865;45.394;10.978;2023-06-22T09:39:30;12.85;;;8.77;;
23384;SDS011;11865;45.394;10.978;2023-06-22T09:41:59;13.18;;;8.98;;
23384;SDS011;11865;45.394;10.978;2023-06-22T09:44:27;17.98;;;9.52;;
23384;SDS011;11865;45.394;10.978;2023-06-22T09:46:54;18.27;;;9.88;;
23384;SDS011;11865;45.394;10.978;2023-06-22T09:49:22;13.80;;;9.80;;
23384;SDS011;11865;45.394;10.978;2023-06-22T09:52:09;14.65;;;9.07;;
23384;SDS011;11865;45.394;10.978;2023-06-22T09:54:38;18.70;;;9.27;;
23384;SDS011;11865;45.394;10.978;2023-06-22T09:57:05;13.25;;;8.85;;
23384;SDS011;11865;45.394;10.978;2023-06-22T09:59:33;13.25;;;8.88;;
23384;SDS011;11865;45.394;10.978;2023-06-22T10:02:01;18.73;;;10.02;;
23384;SDS011;11865;45.394;10.978;2023-06-22T10:04:28;15.40;;;9.20;;
23384;SDS011;11865;45.394;10.978;2023-06-22T10:06:57;16.88;;;9.93;;
23384;SDS011;11865;45.394;10.978;2023-06-22T10:09:25;16.05;;;9.13;;
23384;SDS011;11865;45.394;10.978;2023-06-22T10:11:52;21.80;;;9.93;;
23384;SDS011;11865;45.394;10.978;2023-06-22T10:14:20;24.02;;;10.77;;
23384;SDS011;11865;45.394;10.978;2023-06-22T10:16:48;22.13;;;9.52;;
23384;SDS011;11865;45.394;10.978;2023-06-22T10:19:15;17.55;;;9.07;;
23384;SDS011;11865;45.394;10.978;2023-06-22T10:21:43;24.42;;;10.45;;
23384;SDS011;11865;45.394;10.978;2023-06-22T10:24:10;16.30;;;8.82;;
23384;SDS011;11865;45.394;10.978;2023-06-22T10:26:38;14.40;;;8.73;;
23384;SDS011;11865;45.394;10.978;2023-06-22T10:29:05;14.90;;;9.70;;
23384;SDS011;11865;45.394;10.978;2023-06-22T10:31:43;17.73;;;9.82;;
23384;SDS011;11865;45.394;10.978;2023-06-22T10:34:10;17.20;;;10.05;;
23384;SDS011;11865;45.394;10.978;2023-06-22T10:36:38;18.25;;;9.40;;
23384;SDS011;11865;45.394;10.978;2023-06-22T10:39:06;18.83;;;9.57;;
23384;SDS011;11865;45.394;10.978;2023-06-22T10:41:34;16.00;;;9.20;;
23384;SDS011;11865;45.394;10.978;2023-06-22T10:44:02;15.45;;;8.60;;
23384;SDS011;11865;45.394;10.978;2023-06-22T10:46:30;17.25;;;8.80;;
23384;SDS011;11865;45.394;10.978;2023-06-22T10:48:58;19.58;;;9.23;;
23384;SDS011;11865;45.394;10.978;2023-06-22T10:51:25;11.27;;;8.05;;
23384;SDS011;11865;45.394;10.978;2023-06-22T10:53:55;13.90;;;9.15;;
23384;SDS011;11865;45.394;10.978;2023-06-22T10:56:22;16.77;;;9.10;;
23384;SDS011;11865;45.394;10.978;2023-06-22T10:58:50;17.17;;;9.35;;
23384;SDS011;11865;45.394;10.978;2023-06-22T11:01:18;13.88;;;9.68;;
23384;SDS011;11865;45.394;10.978;2023-06-22T11:03:52;18.30;;;9.38;;
23384;SDS011;11865;45.394;10.978;2023-06-22T11:06:19;18.33;;;9.43;;
23384;SDS011;11865;45.394;10.978;2023-06-22T11:08:47;18.60;;;8.82;;
23384;SDS011;11865;45.394;10.978;2023-06-22T11:11:32;15.75;;;9.23;;
23384;SDS011;11865;45.394;10.978;2023-06-22T11:14:00;17.85;;;9.38;;
23384;SDS011;11865;45.394;10.978;2023-06-22T11:16:27;14.52;;;9.80;;
23384;SDS011;11865;45.394;10.978;2023-06-22T11:18:55;18.10;;;9.43;;
23384;SDS011;11865;45.394;10.978;2023-06-22T11:21:22;13.45;;;9.57;;
23384;SDS011;11865;45.394;10.978;2023-06-22T11:23:50;15.40;;;8.85;;
23384;SDS011;11865;45.394;10.978;2023-06-22T11:26:17;15.05;;;9.20;;
23384;SDS011;11865;45.394;10.978;2023-06-22T11:28:45;17.58;;;8.98;;
23384;SDS011;11865;45.394;10.978;2023-06-22T11:31:14;15.90;;;9.48;;
23384;SDS011;11865;45.394;10.978;2023-06-22T11:33:52;15.75;;;9.52;;
23384;SDS011;11865;45.394;10.978;2023-06-22T11:36:20;18.40;;;8.77;;
23384;SDS011;11865;45.394;10.978;2023-06-22T11:38:47;12.73;;;9.02;;
23384;SDS011;11865;45.394;10.978;2023-06-22T11:41:15;14.00;;;8.45;;
23384;SDS011;11865;45.394;10.978;2023-06-22T11:43:43;15.30;;;8.98;;
23384;SDS011;11865;45.394;10.978;2023-06-22T11:46:11;16.95;;;9.80;;
23384;SDS011;11865;45.394;10.978;2023-06-22T11:48:39;10.60;;;8.75;;
23384;SDS011;11865;45.394;10.978;2023-06-22T11:51:06;17.05;;;9.05;;
23384;SDS011;11865;45.394;10.978;2023-06-22T11:53:35;18.33;;;8.82;;
23384;SDS011;11865;45.394;10.978;2023-06-22T11:56:02;14.38;;;8.77;;
23384;SDS011;11865;45.394;10.978;2023-06-22T11:58:30;17.13;;;8.65;;
23384;SDS011;11865;45.394;10.978;2023-06-22T12:00:57;14.60;;;8.38;;
23384;SDS011;11865;45.394;10.978;2023-06-22T12:03:25;17.48;;;8.43;;
23384;SDS011;11865;45.394;10.978;2023-06-22T12:05:53;16.88;;;9.63;;
23384;SDS011;11865;45.394;10.978;2023-06-22T12:08:20;13.40;;;8.65;;
23384;SDS011;11865;45.394;10.978;2023-06-22T12:10:49;21.55;;;9.30;;
23384;SDS011;11865;45.394;10.978;2023-06-22T12:13:17;15.45;;;8.45;;
23384;SDS011;11865;45.394;10.978;2023-06-22T12:15:44;16.17;;;8.70;;
23384;SDS011;11865;45.394;10.978;2023-06-22T12:18:12;15.85;;;9.50;;
23384;SDS011;11865;45.394;10.978;2023-06-22T12:20:42;19.55;;;9.13;;
23384;SDS011;11865;45.394;10.978;2023-06-22T12:23:09;17.02;;;9.52;;
23384;SDS011;11865;45.394;10.978;2023-06-22T12:25:37;16.83;;;9.50;;
23384;SDS011;11865;45.394;10.978;2023-06-22T12:28:04;16.20;;;9.88;;
23384;SDS011;11865;45.394;10.978;2023-06-22T12:30:32;29.70;;;9.60;;
23384;SDS011;11865;45.394;10.978;2023-06-22T12:33:00;14.90;;;10.50;;
23384;SDS011;11865;45.394;10.978;2023-06-22T12:35:27;15.77;;;10.45;;
23384;SDS011;11865;45.394;10.978;2023-06-22T12:37:55;20.65;;;10.20;;
23384;SDS011;11865;45.394;10.978;2023-06-22T12:40:23;19.95;;;11.30;;
23384;SDS011;11865;45.394;10.978;2023-06-22T12:42:50;14.55;;;9.32;;
23384;SDS011;11865;45.394;10.978;2023-06-22T12:45:18;13.88;;;8.98;;
23384;SDS011;11865;45.394;10.978;2023-06-22T12:47:48;19.08;;;9.48;;
23384;SDS011;11865;45.394;10.978;2023-06-22T12:50:17;16.83;;;9.55;;
23384;SDS011;11865;45.394;10.978;2023-06-22T12:52:44;15.20;;;9.30;;
23384;SDS011;11865;45.394;10.978;2023-06-22T12:55:12;15.27;;;8.90;;
23384;SDS011;11865;45.394;10.978;2023-06-22T12:57:40;14.50;;;8.90;;
23384;SDS011;11865;45.394;10.978;2023-06-22T13:00:07;14.43;;;9.38;;
23384;SDS011;11865;45.394;10.978;2023-06-22T13:02:37;18.05;;;9.20;;
23384;SDS011;11865;45.394;10.978;2023-06-22T13:05:05;14.02;;;9.38;;
23384;SDS011;11865;45.394;10.978;2023-06-22T13:07:32;18.95;;;9.65;;
23384;SDS011;11865;45.394;10.978;2023-06-22T13:10:00;15.18;;;8.88;;
23384;SDS011;11865;45.394;10.978;2023-06-22T13:12:28;23.40;;;8.82;;
23384;SDS011;11865;45.394;10.978;2023-06-22T13:14:55;14.13;;;8.77;;
23384;SDS011;11865;45.394;10.978;2023-06-22T13:17:23;14.75;;;9.00;;
23384;SDS011;11865;45.394;10.978;2023-06-22T13:19:51;17.15;;;8.32;;
23384;SDS011;11865;45.394;10.978;2023-06-22T13:22:25;13.13;;;7.75;;
23384;SDS011;11865;45.394;10.978;2023-06-22T13:24:56;13.30;;;8.05;;
23384;SDS011;11865;45.394;10.978;2023-06-22T13:27:24;17.08;;;8.32;;
23384;SDS011;11865;45.394;10.978;2023-06-22T13:29:52;14.45;;;7.70;;
23384;SDS011;11865;45.394;10.978;2023-06-22T13:32:19;12.50;;;7.03;;
23384;SDS011;11865;45.394;10.978;2023-06-22T13:34:47;16.63;;;9.05;;
23384;SDS011;11865;45.394;10.978;2023-06-22T13:37:14;13.50;;;7.00;;
23384;SDS011;11865;45.394;10.978;2023-06-22T13:39:42;11.20;;;5.97;;
23384;SDS011;11865;45.394;10.978;2023-06-22T13:42:10;11.68;;;6.57;;
23384;SDS011;11865;45.394;10.978;2023-06-22T13:44:37;18.52;;;7.10;;
23384;SDS011;11865;45.394;10.978;2023-06-22T13:47:05;11.70;;;7.10;;
23384;SDS011;11865;45.394;10.978;2023-06-22T13:49:33;16.05;;;7.60;;
23384;SDS011;11865;45.394;10.978;2023-06-22T13:52:01;14.63;;;8.43;;
23384;SDS011;11865;45.394;10.978;2023-06-22T13:54:30;17.77;;;8.63;;
23384;SDS011;11865;45.394;10.978;2023-06-22T13:57:01;13.00;;;8.00;;
23384;SDS011;11865;45.394;10.978;2023-06-22T13:59:29;15.27;;;8.38;;
23384;SDS011;11865;45.394;10.978;2023-06-22T14:01:57;18.40;;;8.18;;
23384;SDS011;11865;45.394;10.978;2023-06-22T14:04:24;23.55;;;9.15;;
23384;SDS011;11865;45.394;10.978;2023-06-22T14:06:52;17.20;;;8.18;;
23384;SDS011;11865;45.394;10.978;2023-06-22T14:09:23;14.93;;;8.88;;
23384;SDS011;11865;45.394;10.978;2023-06-22T14:11:50;34.17;;;10.02;;
23384;SDS011;11865;45.394;10.978;2023-06-22T14:14:18;17.52;;;9.38;;
23384;SDS011;11865;45.394;10.978;2023-06-22T14:16:45;18.92;;;9.02;;
23384;SDS011;11865;45.394;10.978;2023-06-22T14:19:13;22.02;;;8.43;;
23384;SDS011;11865;45.394;10.978;2023-06-22T14:21:41;20.13;;;8.63;;
23384;SDS011;11865;45.394;10.978;2023-06-22T14:24:09;17.33;;;8.63;;
23384;SDS011;11865;45.394;10.978;2023-06-22T14:26:36;60.97;;;10.77;;
23384;SDS011;11865;45.394;10.978;2023-06-22T14:29:04;23.02;;;9.65;;
23384;SDS011;11865;45.394;10.978;2023-06-22T14:31:32;42.95;;;10.30;;
23384;SDS011;11865;45.394;10.978;2023-06-22T14:33:59;17.60;;;9.48;;
23384;SDS011;11865;45.394;10.978;2023-06-22T14:36:27;16.52;;;8.77;;
23384;SDS011;11865;45.394;10.978;2023-06-22T14:38:55;23.77;;;10.18;;
23384;SDS011;11865;45.394;10.978;2023-06-22T14:41:22;13.60;;;9.10;;